Airfield :
LOGIN :

Register | Disclaimer

   EN    FR    IT 

 










Legend :    VFR   Marginal VFR   IFR   Intensive IFR   Very Intensive IFR
Visi :
Ceiling :
>= 8 km
>= 3000ft
5 to 8 km
1000 to 3000 ft
1500m to 5 km
500 to 1000 ft
800 to 1500m
200 to 500 ft
< 800m
< 200 ft
Symbols :   Thunderstorms  Fog  Heavy snow  Heavy precipitations  Wind > 20 kt
SIGMETs :     Misc.  Thunderstorms  Icing  Turbulence  Mountain Waves  Volcanic Ashes







- Airport Elevation : 1247 ft
- IATA code : PRG


LKPR - Praha Ruzyne

CURRENT METAR :
  • 221300Z 27014KT 9999 -SHRA SCT028TCU BKN043 09/07 Q1020 NOSIG

EXPIRED METARs :
  • 221247Z 27015KT 8000 SHRA SCT025TCU BKN032 10/07 Q1020 RMK REG QNH 1014
  • 221230Z 29011KT 9999 -SHRA SCT025TCU BKN032 10/07 Q1020 NOSIG
  • 221219Z 30009KT 9999 -SHRA SCT029TCU BKN037 10/06 Q1020 RMK REG QNH 1014
  • 221213Z 31006KT 280V340 5000 SHRA SCT027TCU BKN045 12/07 Q1020 RMK REG QNH 1014
  • 221200Z 30008KT 9999 -SHRA SCT027TCU BKN045 13/06 Q1019 NOSIG
  • 221130Z 27009KT 9999 -SHRA SCT032 BKN045 12/06 Q1020 TEMPO SCT027TCU
  • 221118Z 27015G26KT 9999 -SHRA SCT032 BKN045 11/06 Q1020 RMK REG QNH 1014
  • 221100Z 26012KT 9999 -SHRA SCT032 BKN045 13/05 Q1019 NOSIG
  • 221048Z 26014KT 9999 -SHRA BKN046 13/03 Q1019 RMK REG QNH 1014
  • 221030Z 27017KT 9999 SCT047 14/03 Q1019 NOSIG

TAF TAF LKPR
Valid from the 22 at 12:00 until the 23 at 18:00 UTC


221100Z 2212/2318 27010KT 9999 SCT040
TEMPO 2212/2219 31014G24KT 7000 SHRA SCT027TCU BKN030
PROB30
TEMPO 2212/2217 4000 TSRA SCT025CB
BECMG 2301/2304 26010KT BKN030
TEMPO 2308/2318 29016G28KT 6000 SHRA FEW027TCU BKN028
No reported NOTAMs for that airfield.



MET'MAP, your aeronautical weather chart ! - Copyright ORBIFLY December 2007 - Disclaimer

ORBIFLY MET'MAP TEAM :

Programming & Development : Alexandra Zaïnal
Concept & Development : Baudouin d'Aumeries
Co-Development & Prog : Marc-Olivier Méhu
Technical & hardware support : Manuel Goepfert

Contact : metmap@orbifly.com




SOURCES & CREDITS :

   NOAA